Time;durP1;ratioP1;P1;durP2;ratioP2;P2;SDS_P1;SDS_P2;PMS_P1;PMS_P2;Temp;Humidity;BMP_temperature;BMP_pressure;BME280_temperature;BME280_humidity;BME280_pressure;Samples;Min_cycle;Max_cycle;Signal;HPM_P1;HPM_P2
2022/08/18 00:01:28;;;;;;;15.55;8.65;;;20.00;99.90;;;;;;5034359;28;20127;-49
2022/08/18 00:03:55;;;;;;;13.02;6.90;;;20.00;99.90;;;;;;5030982;28;20063;-50
2022/08/18 00:06:22;;;;;;;13.98;8.48;;;20.00;99.90;;;;;;5046321;28;20085;-50
2022/08/18 00:08:48;;;;;;;16.92;8.63;;;20.00;99.90;;;;;;5033495;28;20041;-52
2022/08/18 00:11:15;;;;;;;12.45;7.72;;;20.00;99.90;;;;;;5029757;28;20125;-49
2022/08/18 00:13:42;;;;;;;13.63;7.88;;;20.00;99.90;;;;;;5048928;28;20045;-48
2022/08/18 00:16:10;;;;;;;10.38;6.25;;;20.00;99.90;;;;;;5051621;28;20080;-50
2022/08/18 00:18:37;;;;;;;11.35;6.57;;;20.00;99.90;;;;;;5052096;28;20076;-47
2022/08/18 00:21:04;;;;;;;14.02;8.35;;;20.00;99.90;;;;;;5050996;28;20126;-44
2022/08/18 00:23:31;;;;;;;13.23;7.80;;;20.00;99.90;;;;;;5033060;28;20726;-48
2022/08/18 00:25:59;;;;;;;12.98;6.57;;;20.00;99.90;;;;;;5033672;28;20048;-47
2022/08/18 00:28:25;;;;;;;15.23;8.18;;;20.00;99.90;;;;;;5050085;28;20049;-48
2022/08/18 00:30:52;;;;;;;10.70;5.82;;;20.00;99.90;;;;;;5033890;28;20084;-49
2022/08/18 00:33:20;;;;;;;15.43;8.57;;;20.00;99.90;;;;;;5050748;28;20132;-49
2022/08/18 00:35:47;;;;;;;15.30;8.15;;;20.00;99.90;;;;;;5033745;28;20065;-49
2022/08/18 00:38:14;;;;;;;13.90;8.70;;;20.00;99.90;;;;;;5051313;28;20080;-51
2022/08/18 00:40:42;;;;;;;13.50;8.20;;;20.00;99.90;;;;;;5051508;28;20137;-50
2022/08/18 00:43:12;;;;;;;11.70;6.28;;;20.00;99.90;;;;;;5033559;28;20132;-47
2022/08/18 00:45:40;;;;;;;14.93;7.53;;;20.00;99.90;;;;;;5051286;28;20470;-50
2022/08/18 00:48:09;;;;;;;10.25;5.78;;;20.00;99.90;;;;;;5051298;28;20136;-48
2022/08/18 00:50:40;;;;;;;11.95;5.85;;;20.00;99.90;;;;;;5048210;28;20484;-49
2022/08/18 00:53:09;;;;;;;11.95;5.43;;;20.00;99.90;;;;;;5037455;28;20388;-50
2022/08/18 00:55:35;;;;;;;10.30;6.03;;;19.90;99.90;;;;;;5031896;28;20128;-50
2022/08/18 00:58:05;;;;;;;13.90;6.28;;;20.00;99.90;;;;;;5033685;28;20107;-50
2022/08/18 01:00:32;;;;;;;11.73;6.15;;;20.00;99.90;;;;;;5050608;28;20044;-49
2022/08/18 01:03:01;;;;;;;8.30;4.60;;;20.00;99.90;;;;;;5049276;28;20049;-49
2022/08/18 01:05:31;;;;;;;14.15;5.93;;;19.90;99.90;;;;;;5050683;28;20103;-48
2022/08/18 01:07:59;;;;;;;15.80;5.18;;;19.90;99.90;;;;;;5051271;28;20072;-49
2022/08/18 01:10:25;;;;;;;10.38;3.95;;;19.90;99.90;;;;;;5033299;28;20084;-49
2022/08/18 01:12:53;;;;;;;9.30;5.28;;;19.90;99.90;;;;;;5050458;28;20611;-52
2022/08/18 01:15:20;;;;;;;13.55;5.50;;;19.90;99.90;;;;;;5050477;28;20087;-49
2022/08/18 01:23:20;;;;;;;14.20;4.50;;;19.80;99.90;;;;;;5050191;28;20049;-48
2022/08/18 01:26:02;;;;;;;10.90;4.70;;;19.80;99.90;;;;;;5042519;28;20155;-49
2022/08/18 01:28:30;;;;;;;11.48;5.10;;;19.80;99.90;;;;;;5043462;28;20041;-49
2022/08/18 01:30:57;;;;;;;10.68;4.63;;;19.80;99.90;;;;;;5049636;28;20089;-47
2022/08/18 01:33:25;;;;;;;11.70;4.60;;;19.80;99.90;;;;;;5033035;28;20493;-49
2022/08/18 01:35:52;;;;;;;13.15;4.78;;;19.80;99.90;;;;;;5033018;28;20061;-48
2022/08/18 01:38:21;;;;;;;8.88;4.63;;;19.80;99.90;;;;;;5033266;28;20486;-50
2022/08/18 01:40:48;;;;;;;15.77;5.88;;;19.80;99.90;;;;;;5054380;28;20132;-45
2022/08/18 01:43:15;;;;;;;9.57;5.10;;;19.80;99.90;;;;;;5054318;28;20140;-50
2022/08/18 01:45:42;;;;;;;12.13;5.10;;;19.80;99.90;;;;;;5052683;28;20052;-49
2022/08/18 01:48:08;;;;;;;15.25;6.70;;;19.80;99.90;;;;;;5035778;28;20493;-47
2022/08/18 01:50:36;;;;;;;10.30;4.25;;;19.80;99.90;;;;;;5054370;28;20135;-50
2022/08/18 01:53:04;;;;;;;17.35;7.03;;;19.80;99.90;;;;;;5035854;28;20107;-49
2022/08/18 01:55:32;;;;;;;18.60;7.40;;;19.80;99.90;;;;;;5052280;28;20057;-51
2022/08/18 01:58:00;;;;;;;15.77;8.38;;;19.80;99.90;;;;;;5053974;28;20110;-51
2022/08/18 02:00:27;;;;;;;22.92;11.30;;;19.80;99.90;;;;;;5054273;28;20045;-52
2022/08/18 02:02:54;;;;;;;14.25;8.38;;;19.80;99.90;;;;;;5054209;28;20045;-53
2022/08/18 02:05:23;;;;;;;24.67;12.63;;;19.80;99.90;;;;;;5053202;28;20045;-47
2022/08/18 02:07:50;;;;;;;18.33;11.13;;;19.80;99.90;;;;;;5054171;28;20053;-50
2022/08/18 02:10:16;;;;;;;14.63;9.48;;;19.80;99.90;;;;;;5053250;28;20077;-47
2022/08/18 02:12:45;;;;;;;26.38;11.95;;;19.80;99.90;;;;;;5036575;28;20067;-49
2022/08/18 02:15:11;;;;;;;20.48;11.98;;;19.80;99.90;;;;;;5036011;28;20411;-47
2022/08/18 02:17:38;;;;;;;21.52;12.15;;;19.80;99.90;;;;;;5036283;28;20049;-47
2022/08/18 02:20:06;;;;;;;14.55;9.15;;;19.80;99.90;;;;;;5046018;28;20136;-50
2022/08/18 02:22:33;;;;;;;19.25;12.35;;;19.80;99.90;;;;;;5050257;28;20427;-47
2022/08/18 02:25:00;;;;;;;16.63;10.00;;;19.80;99.90;;;;;;5048948;28;20049;-49
2022/08/18 02:27:27;;;;;;;20.25;10.48;;;19.80;99.90;;;;;;5035330;28;20186;-49
2022/08/18 02:29:55;;;;;;;20.52;9.23;;;19.80;99.90;;;;;;5053940;28;20059;-49
2022/08/18 02:32:22;;;;;;;15.13;9.05;;;19.80;99.90;;;;;;5053119;28;20062;-51
2022/08/18 02:34:49;;;;;;;19.95;9.90;;;19.80;99.90;;;;;;5053602;28;20076;-48
2022/08/18 02:37:15;;;;;;;14.15;8.23;;;19.80;99.90;;;;;;5035376;28;20135;-40
2022/08/18 02:39:42;;;;;;;19.63;7.68;;;19.80;99.90;;;;;;5053163;28;20139;-46
2022/08/18 02:42:09;;;;;;;22.33;8.48;;;19.80;99.90;;;;;;5052724;28;20128;-47
2022/08/18 02:44:36;;;;;;;15.70;8.52;;;19.80;99.90;;;;;;5034826;28;20510;-49
2022/08/18 02:47:04;;;;;;;15.80;7.15;;;19.80;99.90;;;;;;5053615;28;20052;-49
2022/08/18 02:49:31;;;;;;;19.30;7.40;;;19.80;99.90;;;;;;5052371;28;20048;-48
2022/08/18 02:51:58;;;;;;;14.50;6.50;;;19.80;99.90;;;;;;5035734;28;20045;-46
2022/08/18 02:54:24;;;;;;;16.25;7.15;;;19.80;99.90;;;;;;5052477;28;20045;-42
2022/08/18 02:56:51;;;;;;;18.38;7.57;;;19.80;99.90;;;;;;5053504;28;20135;-48
2022/08/18 02:59:19;;;;;;;15.65;6.45;;;19.80;99.90;;;;;;5034622;28;20144;-47
2022/08/18 03:01:47;;;;;;;14.77;7.45;;;19.80;99.90;;;;;;5035110;28;20057;-46
2022/08/18 03:04:18;;;;;;;14.65;6.80;;;19.80;99.90;;;;;;5035007;28;20076;-47
2022/08/18 03:06:45;;;;;;;14.85;6.97;;;19.80;99.90;;;;;;5052405;28;20123;-49
2022/08/18 03:09:13;;;;;;;17.17;8.00;;;19.80;99.90;;;;;;5052753;28;20126;-47
2022/08/18 03:11:40;;;;;;;12.63;5.68;;;19.80;99.90;;;;;;5052330;28;20059;-50
2022/08/18 03:14:07;;;;;;;17.33;7.05;;;19.80;99.90;;;;;;5035199;28;20128;-47
2022/08/18 03:16:35;;;;;;;14.00;6.40;;;19.80;99.90;;;;;;5052156;28;20094;-49
2022/08/18 03:19:01;;;;;;;12.93;6.72;;;19.80;99.90;;;;;;5035144;28;20049;-51
2022/08/18 03:21:33;;;;;;;12.40;6.28;;;19.80;99.90;;;;;;5052640;28;20041;-47
2022/08/18 03:24:00;;;;;;;18.35;6.30;;;19.80;99.90;;;;;;5034946;28;20122;-49
2022/08/18 03:26:27;;;;;;;19.25;7.70;;;19.70;99.90;;;;;;5034766;28;20103;-48
2022/08/18 03:28:54;;;;;;;20.13;8.05;;;19.70;99.90;;;;;;5034013;28;20061;-47
2022/08/18 03:31:22;;;;;;;17.13;7.65;;;19.70;99.90;;;;;;5052612;28;20045;-44
2022/08/18 03:33:50;;;;;;;23.30;8.68;;;19.70;99.90;;;;;;5043953;28;20099;-48
2022/08/18 03:36:19;;;;;;;20.67;8.95;;;19.70;99.90;;;;;;5052488;28;20037;-46
2022/08/18 03:38:49;;;;;;;17.27;7.65;;;19.60;99.90;;;;;;5051824;28;20477;-46
2022/08/18 03:41:18;;;;;;;24.30;8.05;;;19.60;99.90;;;;;;5052695;28;20128;-47
2022/08/18 03:43:45;;;;;;;18.50;8.20;;;19.60;99.90;;;;;;5051420;28;20560;-55
2022/08/18 03:46:13;;;;;;;20.33;9.77;;;19.60;99.90;;;;;;5034442;28;20045;-45
2022/08/18 03:48:40;;;;;;;23.05;9.25;;;19.60;99.90;;;;;;5051342;28;20077;-43
2022/08/18 03:51:14;;;;;;;23.08;8.45;;;19.60;99.90;;;;;;5052086;28;20072;-45
2022/08/18 03:53:40;;;;;;;17.27;9.77;;;19.60;99.90;;;;;;5051744;28;20455;-42
2022/08/18 03:56:14;;;;;;;17.05;8.70;;;19.60;99.90;;;;;;5034118;28;20518;-46
2022/08/18 03:58:44;;;;;;;17.30;7.72;;;19.60;99.90;;;;;;5051767;28;20527;-43
2022/08/18 04:01:12;;;;;;;15.18;7.60;;;19.60;99.90;;;;;;5033923;28;20048;-46
2022/08/18 04:03:38;;;;;;;17.23;8.80;;;19.60;99.90;;;;;;5051697;28;20045;-47
2022/08/18 04:06:06;;;;;;;17.27;6.95;;;19.60;99.90;;;;;;5046708;28;20183;-45
2022/08/18 04:08:32;;;;;;;20.50;9.35;;;19.60;99.90;;;;;;5051853;28;20126;-45
2022/08/18 04:10:59;;;;;;;21.00;10.32;;;19.60;99.90;;;;;;5033335;28;20060;-46
2022/08/18 04:13:27;;;;;;;25.35;10.52;;;19.60;99.90;;;;;;5034334;28;20045;-52
2022/08/18 04:15:54;;;;;;;19.08;9.57;;;19.60;99.90;;;;;;5033571;28;20099;-43
2022/08/18 04:18:21;;;;;;;19.73;7.32;;;19.60;99.90;;;;;;5033694;28;20057;-46
2022/08/18 04:20:47;;;;;;;14.60;8.32;;;19.60;99.90;;;;;;5033729;28;20064;-45
2022/08/18 04:23:16;;;;;;;17.15;8.77;;;19.60;99.90;;;;;;5026392;28;20498;-47
2022/08/18 04:25:43;;;;;;;17.58;8.63;;;19.60;99.90;;;;;;5026491;28;20045;-44
2022/08/18 04:28:09;;;;;;;23.70;9.60;;;19.50;99.90;;;;;;5050638;28;20052;-46
2022/08/18 04:30:37;;;;;;;22.20;8.80;;;19.50;99.90;;;;;;5051488;28;20077;-45
2022/08/18 04:33:05;;;;;;;13.40;8.32;;;19.50;99.90;;;;;;5025533;28;20132;-46
2022/08/18 04:35:32;;;;;;;18.83;7.80;;;19.50;99.90;;;;;;5051803;28;20056;-46
2022/08/18 04:37:59;;;;;;;21.33;7.85;;;19.50;99.90;;;;;;5033067;28;20056;-47
2022/08/18 04:40:26;;;;;;;27.60;9.80;;;19.50;99.90;;;;;;5033749;28;20149;-45
2022/08/18 04:42:53;;;;;;;18.95;8.90;;;19.50;99.90;;;;;;5050818;28;20061;-45
2022/08/18 04:45:20;;;;;;;20.92;9.82;;;19.50;99.90;;;;;;5050338;28;20132;-47
2022/08/18 04:47:48;;;;;;;21.23;9.18;;;19.50;99.90;;;;;;5051311;28;20110;-47
2022/08/18 04:50:15;;;;;;;22.02;9.40;;;19.50;99.90;;;;;;5050347;28;20458;-47
2022/08/18 04:55:28;;;;;;;24.20;11.23;;;19.50;99.90;;;;;;5032591;28;20552;-46
2022/08/18 04:57:54;;;;;;;23.23;10.77;;;19.50;99.90;;;;;;5050722;28;20084;-40
2022/08/18 05:00:21;;;;;;;25.25;10.73;;;19.50;99.90;;;;;;5050574;28;20135;-49
2022/08/18 05:02:49;;;;;;;15.52;8.73;;;19.50;99.90;;;;;;5051378;28;20053;-48
2022/08/18 05:05:16;;;;;;;14.50;8.02;;;19.50;99.90;;;;;;5032721;28;21476;-46
2022/08/18 05:07:44;;;;;;;16.42;9.20;;;19.50;99.90;;;;;;5051119;28;20049;-43
2022/08/18 05:10:11;;;;;;;20.20;9.10;;;19.50;99.90;;;;;;5050645;28;20059;-43
2022/08/18 05:12:41;;;;;;;18.63;9.40;;;19.50;99.90;;;;;;5051078;28;20132;-46
2022/08/18 05:15:09;;;;;;;15.55;8.75;;;19.50;99.90;;;;;;5035841;28;20053;-46
2022/08/18 05:17:38;;;;;;;23.88;11.25;;;19.50;99.90;;;;;;5037495;28;20041;-45
2022/08/18 05:20:08;;;;;;;17.17;9.30;;;19.50;99.90;;;;;;5036801;28;20053;-45
2022/08/18 05:22:38;;;;;;;19.30;9.85;;;19.50;99.90;;;;;;5037203;28;20136;-47
2022/08/18 05:25:05;;;;;;;17.85;9.10;;;19.50;99.90;;;;;;5053910;28;20459;-45
2022/08/18 05:27:33;;;;;;;13.10;7.68;;;19.50;99.90;;;;;;5054884;28;20128;-50
2022/08/18 05:30:01;;;;;;;19.52;10.52;;;19.50;99.90;;;;;;5054543;28;20055;-39
2022/08/18 05:32:30;;;;;;;18.27;9.43;;;19.50;99.90;;;;;;5053695;28;20102;-42
2022/08/18 05:34:58;;;;;;;19.67;10.15;;;19.50;99.90;;;;;;5051213;28;20041;-46
2022/08/18 05:37:28;;;;;;;24.30;11.10;;;19.50;99.90;;;;;;5053569;28;20048;-48
2022/08/18 05:39:57;;;;;;;21.80;9.52;;;19.50;99.90;;;;;;5054982;28;20400;-48
2022/08/18 05:42:34;;;;;;;20.98;11.90;;;19.50;99.90;;;;;;5053597;28;20136;-47
2022/08/18 05:45:01;;;;;;;20.23;10.27;;;19.50;99.90;;;;;;5037023;28;20089;-48
2022/08/18 05:47:28;;;;;;;20.80;11.48;;;19.50;99.90;;;;;;5054002;28;20059;-47
2022/08/18 05:49:56;;;;;;;20.35;10.93;;;19.50;99.90;;;;;;5036733;28;20136;-46
2022/08/18 05:52:28;;;;;;;20.85;11.82;;;19.60;99.90;;;;;;5036014;28;20044;-46
2022/08/18 05:57:43;;;;;;;19.52;11.30;;;19.60;99.90;;;;;;5034290;28;20053;-46
2022/08/18 06:00:10;;;;;;;19.20;11.07;;;19.60;99.90;;;;;;5034190;28;20081;-45
2022/08/18 06:02:39;;;;;;;16.50;11.25;;;19.60;99.90;;;;;;5033205;28;20061;-46
2022/08/18 06:05:07;;;;;;;18.60;10.80;;;19.60;99.90;;;;;;5034006;28;20103;-46
2022/08/18 06:07:37;;;;;;;21.50;10.70;;;19.60;99.90;;;;;;5033684;28;20096;-47
2022/08/18 06:10:06;;;;;;;19.35;10.45;;;19.70;99.90;;;;;;5032555;28;20052;-46
2022/08/18 06:12:33;;;;;;;15.60;8.95;;;19.80;99.90;;;;;;5033558;28;20476;-46
2022/08/18 06:15:03;;;;;;;14.40;10.10;;;19.90;99.90;;;;;;5033923;28;20056;-43
2022/08/18 06:17:44;;;;;;;17.10;8.93;;;20.00;99.90;;;;;;5033492;28;20073;-45
2022/08/18 06:20:14;;;;;;;14.00;8.73;;;20.10;99.90;;;;;;5034026;28;20124;-46
2022/08/18 06:22:44;;;;;;;12.88;7.85;;;20.20;99.90;;;;;;5033581;28;20304;-48
2022/08/18 06:25:15;;;;;;;18.40;8.80;;;20.20;99.90;;;;;;5032454;28;20069;-45
2022/08/18 06:27:48;;;;;;;14.02;8.05;;;20.30;99.90;;;;;;5033091;28;20063;-48
2022/08/18 06:30:19;;;;;;;17.10;8.80;;;20.30;99.90;;;;;;5033366;28;20103;-45
2022/08/18 06:32:55;;;;;;;12.00;8.13;;;20.30;99.90;;;;;;5032109;28;20053;-46
2022/08/18 06:35:26;;;;;;;17.75;8.55;;;20.30;99.90;;;;;;5032519;28;20061;-47
2022/08/18 06:40:42;;;;;;;12.73;7.90;;;20.30;99.90;;;;;;5032148;28;20479;-50
2022/08/18 06:43:11;;;;;;;11.52;7.43;;;20.30;99.90;;;;;;5032531;28;20056;-46
2022/08/18 06:45:51;;;;;;;13.48;7.50;;;20.30;99.90;;;;;;5032800;28;20152;-48
2022/08/18 06:48:20;;;;;;;13.93;7.80;;;20.20;99.90;;;;;;5033844;28;20049;-45
2022/08/18 06:50:51;;;;;;;9.90;7.43;;;20.20;99.90;;;;;;5022940;28;20168;-48
2022/08/18 06:53:20;;;;;;;14.10;8.55;;;20.20;99.90;;;;;;5033446;28;20104;-43
2022/08/18 06:55:48;;;;;;;15.88;7.68;;;20.20;99.90;;;;;;5031229;28;20085;-44
2022/08/18 06:58:22;;;;;;;14.45;7.85;;;20.30;99.90;;;;;;5033429;28;20124;-43
2022/08/18 07:00:55;;;;;;;11.00;6.50;;;20.40;99.90;;;;;;5032691;28;20128;-45
2022/08/18 07:03:23;;;;;;;12.07;6.68;;;20.40;99.90;;;;;;5033431;28;20139;-46
2022/08/18 07:05:59;;;;;;;11.27;7.95;;;20.40;99.90;;;;;;5031126;28;20085;-46
2022/08/18 07:08:30;;;;;;;10.23;6.88;;;20.40;99.90;;;;;;5033006;28;20124;-46
2022/08/18 07:11:10;;;;;;;10.40;7.47;;;20.40;99.90;;;;;;5032734;28;20080;-46
2022/08/18 07:13:38;;;;;;;8.02;5.68;;;20.40;99.90;;;;;;5030960;28;20128;-44
2022/08/18 07:16:16;;;;;;;12.23;6.80;;;20.40;99.90;;;;;;5024413;28;20045;-45
2022/08/18 07:18:43;;;;;;;12.27;6.75;;;20.50;99.90;;;;;;5030538;28;20085;-45
2022/08/18 07:21:11;;;;;;;10.40;6.13;;;20.60;99.90;;;;;;5032673;28;20087;-48
2022/08/18 07:23:39;;;;;;;11.00;7.22;;;20.60;99.90;;;;;;5030003;28;20132;-40
2022/08/18 07:26:08;;;;;;;7.68;6.03;;;20.70;99.90;;;;;;5025412;28;20511;-45
2022/08/18 07:28:37;;;;;;;13.57;6.63;;;20.70;99.90;;;;;;5031733;28;20049;-46
2022/08/18 07:31:19;;;;;;;10.82;6.88;;;20.60;99.90;;;;;;5031183;28;20085;-47
2022/08/18 07:33:50;;;;;;;7.38;4.95;;;20.70;99.90;;;;;;5030918;28;20132;-49
2022/08/18 07:36:16;;;;;;;12.35;5.75;;;20.60;99.90;;;;;;5031051;28;20084;-47
2022/08/18 07:38:47;;;;;;;9.75;5.00;;;20.70;99.90;;;;;;5031015;28;20128;-41
2022/08/18 07:41:15;;;;;;;14.20;5.30;;;20.70;99.90;;;;;;5027276;28;20054;-42
2022/08/18 07:43:46;;;;;;;13.85;6.28;;;20.70;99.90;;;;;;5028398;28;20137;-41
2022/08/18 07:46:15;;;;;;;6.53;5.00;;;20.70;99.90;;;;;;5023918;28;20149;-50
2022/08/18 07:48:42;;;;;;;9.65;5.03;;;20.70;99.90;;;;;;5031184;28;20089;-49
2022/08/18 07:51:14;;;;;;;8.25;5.30;;;20.70;99.90;;;;;;5031981;28;20477;-47
2022/08/18 07:53:47;;;;;;;9.85;5.20;;;20.70;99.90;;;;;;5030828;28;20085;-47
2022/08/18 07:56:17;;;;;;;11.25;4.90;;;20.70;99.90;;;;;;5035363;28;20137;-47
2022/08/18 07:58:46;;;;;;;7.97;5.20;;;20.70;99.90;;;;;;5052301;28;20147;-45
2022/08/18 08:01:15;;;;;;;8.68;5.55;;;20.80;99.90;;;;;;5051638;28;20091;-47
2022/08/18 08:03:47;;;;;;;7.93;4.18;;;20.90;99.90;;;;;;5051954;28;20114;-48
2022/08/18 08:06:15;;;;;;;;;;;20.90;99.90;;;;;;5052269;28;20072;-45
2022/08/18 08:08:43;;;;;;;10.40;5.32;;;20.90;99.90;;;;;;5051921;28;19924;-46
2022/08/18 08:11:20;;;;;;;7.00;3.83;;;20.90;99.90;;;;;;5051269;28;20498;-46
2022/08/18 08:13:53;;;;;;;6.65;3.88;;;21.00;99.90;;;;;;5033939;28;20057;-49
2022/08/18 08:16:23;;;;;;;5.57;2.92;;;21.00;99.90;;;;;;5026600;28;20481;-44
2022/08/18 08:18:55;;;;;;;6.15;2.40;;;21.10;99.90;;;;;;5034323;28;20053;-45
2022/08/18 08:21:22;;;;;;;;;;;21.20;99.90;;;;;;5044250;28;20144;-45
2022/08/18 08:23:56;;;;;;;4.25;1.70;;;21.20;99.90;;;;;;5051602;28;19975;-47
2022/08/18 08:26:37;;;;;;;4.47;1.10;;;21.20;99.90;;;;;;5044204;28;20435;-47
2022/08/18 08:29:13;;;;;;;6.22;1.42;;;21.30;99.90;;;;;;5049048;28;20051;-48
2022/08/18 08:31:45;;;;;;;4.40;1.77;;;21.30;99.90;;;;;;5050525;28;20128;-41
2022/08/18 08:34:14;;;;;;;5.82;2.22;;;21.40;99.90;;;;;;5047954;28;20573;-48
2022/08/18 08:36:43;;;;;;;27.70;4.50;;;21.40;99.90;;;;;;5033628;28;20136;-49
2022/08/18 08:39:12;;;;;;;7.22;2.50;;;21.40;99.90;;;;;;5051193;28;20056;-47
2022/08/18 08:41:43;;;;;;;10.90;3.20;;;21.40;99.90;;;;;;5051512;28;20127;-46
2022/08/18 08:44:12;;;;;;;8.70;3.05;;;21.40;99.90;;;;;;5033169;28;20084;-49
2022/08/18 08:46:42;;;;;;;12.52;3.40;;;21.30;99.90;;;;;;5033736;28;20139;-46
2022/08/18 08:49:11;;;;;;;8.50;2.80;;;21.30;99.90;;;;;;5056217;28;20453;-44
2022/08/18 08:51:40;;;;;;;10.93;2.92;;;21.30;99.90;;;;;;5040300;28;20041;-45
2022/08/18 08:54:10;;;;;;;11.45;3.78;;;21.30;99.90;;;;;;5032399;28;20088;-40
2022/08/18 08:56:39;;;;;;;16.30;3.97;;;21.30;99.90;;;;;;5037761;28;20128;-45
2022/08/18 08:59:09;;;;;;;9.88;3.30;;;21.20;99.90;;;;;;5056611;28;20100;-47
2022/08/18 09:01:39;;;;;;;8.02;3.17;;;21.30;99.90;;;;;;5057578;28;20140;-46
2022/08/18 09:04:14;;;;;;;8.82;3.00;;;21.30;99.90;;;;;;5057440;28;20072;-47
2022/08/18 09:06:44;;;;;;;10.73;3.67;;;21.30;99.90;;;;;;5050177;28;20080;-45
2022/08/18 09:09:19;;;;;;;11.30;3.63;;;21.30;99.90;;;;;;5058029;28;20057;-47
2022/08/18 09:12:03;;;;;;;12.43;2.88;;;21.40;99.90;;;;;;5032877;28;20607;-46
2022/08/18 09:14:55;;;;;;;11.05;3.13;;;21.50;99.90;;;;;;5039167;28;20048;-50
2022/08/18 09:17:32;;;;;;;;;;;21.50;99.90;;;;;;5047431;28;20076;-50
2022/08/18 09:20:07;;;;;;;11.43;3.20;;;21.50;99.90;;;;;;5057890;28;19921;-48
2022/08/18 09:22:38;;;;;;;7.32;2.80;;;21.60;99.90;;;;;;5039264;28;20098;-47
2022/08/18 09:25:09;;;;;;;9.15;3.60;;;21.70;99.90;;;;;;5040103;28;20128;-46
2022/08/18 09:27:40;;;;;;;8.73;2.60;;;21.90;99.90;;;;;;5056368;28;20568;-52
2022/08/18 09:30:29;;;;;;;5.43;2.63;;;22.00;99.90;;;;;;5039856;28;20052;-49
2022/08/18 09:33:00;;;;;;;9.10;2.75;;;22.20;99.90;;;;;;5050866;28;20132;-46
2022/08/18 09:35:37;;;;;;;9.10;2.72;;;22.30;99.90;;;;;;5056862;28;20084;-50
2022/08/18 09:43:39;;;;;;;6.05;2.35;;;22.50;99.90;;;;;;5039048;28;20140;-46
2022/08/18 09:46:07;;;;;;;6.93;2.40;;;22.40;99.90;;;;;;5057294;28;20571;-47
2022/08/18 09:48:36;;;;;;;6.68;2.13;;;22.30;99.90;;;;;;5056896;28;20045;-49
2022/08/18 09:51:23;;;;;;;6.05;2.45;;;22.20;99.90;;;;;;5057683;28;20080;-46
2022/08/18 09:54:08;;;;;;;4.07;2.42;;;22.30;99.90;;;;;;5056714;28;20056;-46
2022/08/18 09:57:15;;;;;;;4.32;1.92;;;22.40;99.90;;;;;;5056480;28;20132;-50
2022/08/18 10:00:09;;;;;;;5.28;2.45;;;22.60;99.90;;;;;;5054776;28;20060;-46
2022/08/18 10:03:23;;;;;;;5.70;2.33;;;22.80;99.90;;;;;;5053482;28;20598;-49
2022/08/18 10:06:14;;;;;;;4.65;1.70;;;23.30;99.90;;;;;;5053979;28;20063;-47
2022/08/18 10:09:02;;;;;;;5.30;2.00;;;23.40;99.90;;;;;;5053326;28;20080;-50
2022/08/18 10:11:42;;;;;;;6.97;2.45;;;23.40;99.90;;;;;;5036469;28;20068;-45
2022/08/18 10:14:21;;;;;;;4.38;2.00;;;23.30;99.90;;;;;;5046830;28;20504;-47
2022/08/18 10:16:51;;;;;;;4.78;2.05;;;23.20;99.90;;;;;;5035997;28;20143;-49
2022/08/18 10:19:19;;;;;;;3.90;1.60;;;23.20;99.90;;;;;;5052932;28;20049;-49
2022/08/18 10:24:52;;;;;;;7.85;1.73;;;23.10;99.90;;;;;;5139653;27;1280112;-50
2022/08/18 10:27:49;;;;;;;9.10;1.92;;;23.10;99.90;;;;;;5140566;27;20099;-45
2022/08/18 10:30:45;;;;;;;3.95;1.50;;;23.10;99.90;;;;;;5158797;27;20122;-51
2022/08/18 10:33:12;;;;;;;5.65;1.77;;;23.20;99.90;;;;;;5136085;27;20046;-51
2022/08/18 10:35:55;;;;;;;4.63;1.35;;;23.20;99.90;;;;;;5154797;27;20130;-48
2022/08/18 10:38:28;;;;;;;2.40;1.30;;;23.30;99.90;;;;;;5158738;27;20101;-45
2022/08/18 10:41:00;;;;;;;3.63;1.40;;;23.30;99.90;;;;;;5140053;27;20486;-47
2022/08/18 10:43:31;;;;;;;4.97;1.38;;;23.40;99.90;;;;;;5170576;27;20070;-48
2022/08/18 10:45:58;;;;;;;3.30;1.58;;;23.40;99.90;;;;;;5167849;27;20047;-47
2022/08/18 10:48:28;;;;;;;5.00;1.52;;;23.50;99.90;;;;;;5145317;27;20594;-50
2022/08/18 10:50:58;;;;;;;4.22;1.65;;;23.50;99.90;;;;;;5160055;27;20074;-46
2022/08/18 10:53:27;;;;;;;4.45;1.58;;;23.50;99.90;;;;;;5155192;27;20042;-49
2022/08/18 10:55:58;;;;;;;3.55;1.77;;;23.60;99.90;;;;;;5148952;27;20137;-49
2022/08/18 10:58:45;;;;;;;3.95;1.35;;;23.50;99.90;;;;;;5139950;27;20042;-48
2022/08/18 11:01:20;;;;;;;10.95;1.70;;;23.50;99.90;;;;;;5149754;27;20142;-46
2022/08/18 11:04:09;;;;;;;11.52;2.47;;;23.60;99.90;;;;;;5155841;27;20490;-47
2022/08/18 11:06:41;;;;;;;13.90;2.30;;;23.70;99.90;;;;;;5125254;27;20086;-48
2022/08/18 11:09:08;;;;;;;4.70;1.60;;;23.70;99.90;;;;;;5151393;27;20047;-48
2022/08/18 11:11:41;;;;;;;2.47;1.45;;;23.80;99.80;;;;;;5143183;27;20070;-47
2022/08/18 11:14:27;;;;;;;5.30;2.25;;;23.80;99.60;;;;;;5134919;27;20038;-45
2022/08/18 11:16:56;;;;;;;3.60;1.52;;;23.90;99.50;;;;;;5158036;27;20129;-50
2022/08/18 11:19:23;;;;;;;3.53;1.88;;;23.90;99.10;;;;;;5151305;27;20488;-47
2022/08/18 11:21:50;;;;;;;4.47;1.60;;;24.00;99.20;;;;;;5151375;27;20057;-49
2022/08/18 11:24:19;;;;;;;4.13;1.52;;;24.10;98.90;;;;;;5160182;27;20141;-46
2022/08/18 11:26:50;;;;;;;4.22;1.60;;;24.20;98.60;;;;;;5169257;27;20449;-50
2022/08/18 11:29:27;;;;;;;4.30;1.65;;;24.20;98.30;;;;;;5160709;27;20055;-50
2022/08/18 11:31:55;;;;;;;5.38;1.95;;;24.20;98.50;;;;;;5162488;27;20391;-47
2022/08/18 11:34:25;;;;;;;4.30;1.70;;;24.20;98.70;;;;;;5145055;27;20439;-46
2022/08/18 11:36:58;;;;;;;5.32;1.90;;;24.30;98.80;;;;;;5142569;27;20512;-50
2022/08/18 11:39:24;;;;;;;3.25;1.25;;;24.40;98.50;;;;;;5135467;27;20043;-49
2022/08/18 11:41:52;;;;;;;6.93;1.90;;;24.50;98.00;;;;;;5143874;27;20055;-48
2022/08/18 11:44:20;;;;;;;3.95;1.33;;;24.60;98.30;;;;;;5124915;27;20051;-49
2022/08/18 11:46:47;;;;;;;3.35;1.70;;;24.80;97.40;;;;;;5125321;27;20097;-50
2022/08/18 11:49:17;;;;;;;2.22;1.30;;;24.80;96.70;;;;;;5144095;27;20082;-49
2022/08/18 11:51:54;;;;;;;4.72;1.70;;;24.90;96.40;;;;;;5149996;27;20055;-49
2022/08/18 11:54:22;;;;;;;3.78;1.58;;;24.90;96.40;;;;;;5126734;27;20055;-49
2022/08/18 11:56:49;;;;;;;5.45;1.45;;;24.90;96.30;;;;;;5149485;27;20397;-51
2022/08/18 11:59:32;;;;;;;2.92;1.40;;;25.00;95.90;;;;;;5154008;27;20050;-47
2022/08/18 12:01:59;;;;;;;4.25;1.50;;;25.00;96.20;;;;;;5147949;27;20321;-49
2022/08/18 12:04:30;;;;;;;2.58;1.50;;;25.00;96.00;;;;;;5142706;27;20045;-48
2022/08/18 12:07:03;;;;;;;5.13;1.60;;;25.10;96.00;;;;;;5150058;27;20157;-46
2022/08/18 12:09:34;;;;;;;3.30;1.70;;;25.20;95.70;;;;;;5143495;27;20057;-52
2022/08/18 12:12:03;;;;;;;2.10;1.48;;;25.30;95.60;;;;;;5150489;27;20047;-50
2022/08/18 12:14:50;;;;;;;5.72;1.73;;;25.50;95.20;;;;;;5147149;27;20074;-50
2022/08/18 12:17:18;;;;;;;3.22;1.65;;;25.50;94.70;;;;;;5145059;27;20086;-48
2022/08/18 12:19:44;;;;;;;6.90;1.52;;;25.60;94.90;;;;;;5120892;27;20141;-47
2022/08/18 12:22:14;;;;;;;3.50;1.50;;;25.50;95.00;;;;;;5125370;27;20446;-50
2022/08/18 12:24:41;;;;;;;5.90;1.63;;;25.50;94.80;;;;;;5146326;27;20478;-48
2022/08/18 12:27:07;;;;;;;3.38;1.50;;;25.50;94.80;;;;;;5121139;27;20074;-48
2022/08/18 12:29:34;;;;;;;5.80;1.70;;;25.50;94.60;;;;;;5126440;27;20134;-46
2022/08/18 12:32:01;;;;;;;6.18;1.60;;;25.40;94.40;;;;;;5141003;27;20041;-45
2022/08/18 12:34:29;;;;;;;5.55;1.70;;;25.30;94.40;;;;;;5143406;27;20050;-49
2022/08/18 12:36:59;;;;;;;2.30;1.55;;;25.30;94.60;;;;;;5127178;27;20216;-49
2022/08/18 12:39:27;;;;;;;5.53;1.90;;;25.30;94.40;;;;;;5145454;27;20480;-49
2022/08/18 12:41:54;;;;;;;3.25;1.35;;;25.40;94.70;;;;;;5149692;27;20406;-48
2022/08/18 12:44:20;;;;;;;4.45;1.85;;;25.50;94.80;;;;;;5123699;27;20049;-48
2022/08/18 12:46:47;;;;;;;5.68;1.50;;;25.50;94.40;;;;;;5141180;27;20050;-49
2022/08/18 12:49:16;;;;;;;5.75;1.80;;;25.50;94.30;;;;;;5142604;27;20043;-49
2022/08/18 12:51:44;;;;;;;6.07;1.92;;;25.40;93.90;;;;;;5122796;27;20047;-46
2022/08/18 12:54:11;;;;;;;5.38;2.03;;;25.50;93.90;;;;;;5145907;27;20046;-46
2022/08/18 12:56:38;;;;;;;4.20;1.67;;;25.60;94.10;;;;;;5136648;27;20498;-45
2022/08/18 12:59:06;;;;;;;5.43;1.60;;;25.90;93.80;;;;;;5153923;27;20449;-45
2022/08/18 13:01:32;;;;;;;3.13;1.67;;;26.10;93.60;;;;;;5143909;27;20050;-46
2022/08/18 13:04:00;;;;;;;6.50;1.73;;;26.20;93.50;;;;;;5116038;27;20501;-46
2022/08/18 13:06:26;;;;;;;6.70;1.60;;;26.30;93.10;;;;;;5123496;27;20035;-45
2022/08/18 13:08:55;;;;;;;6.65;1.80;;;26.20;93.00;;;;;;5134021;27;20498;-45
2022/08/18 13:11:22;;;;;;;4.00;1.23;;;26.10;92.80;;;;;;5141976;27;20130;-45
2022/08/18 13:13:49;;;;;;;4.90;1.73;;;26.10;92.70;;;;;;5125837;27;20150;-45
2022/08/18 13:16:17;;;;;;;3.72;1.80;;;26.10;93.10;;;;;;5143442;27;20501;-44
2022/08/18 13:18:44;;;;;;;3.97;1.60;;;26.30;93.10;;;;;;5119170;27;20053;-43